sensor_id;sensor_type;location;lat;lon;timestamp;temperature;humidity
1988;DHT22;12775;46.994;15.498;2023-04-01T00:00:48;11.60;99.90
1988;DHT22;12775;46.994;15.498;2023-04-01T00:03:16;11.50;99.90
1988;DHT22;12775;46.994;15.498;2023-04-01T00:05:43;11.40;99.90
1988;DHT22;12775;46.994;15.498;2023-04-01T00:08:11;11.40;99.90
1988;DHT22;12775;46.994;15.498;2023-04-01T00:10:38;11.40;99.90
1988;DHT22;12775;46.994;15.498;2023-04-01T00:13:06;11.40;99.90
1988;DHT22;12775;46.994;15.498;2023-04-01T00:15:33;11.40;99.90
1988;DHT22;12775;46.994;15.498;2023-04-01T00:18:00;11.40;99.90
1988;DHT22;12775;46.994;15.498;2023-04-01T00:20:28;11.40;99.90
1988;DHT22;12775;46.994;15.498;2023-04-01T00:22:55;11.50;99.90
1988;DHT22;12775;46.994;15.498;2023-04-01T00:25:22;11.40;99.90
1988;DHT22;12775;46.994;15.498;2023-04-01T00:27:51;11.50;99.30
1988;DHT22;12775;46.994;15.498;2023-04-01T00:30:18;11.50;98.50
1988;DHT22;12775;46.994;15.498;2023-04-01T00:32:45;11.50;98.00
1988;DHT22;12775;46.994;15.498;2023-04-01T00:35:13;11.50;97.80
1988;DHT22;12775;46.994;15.498;2023-04-01T00:37:40;11.50;98.60
1988;DHT22;12775;46.994;15.498;2023-04-01T00:40:11;11.50;98.80
1988;DHT22;12775;46.994;15.498;2023-04-01T00:42:35;11.50;98.70
1988;DHT22;12775;46.994;15.498;2023-04-01T00:45:22;11.50;98.70
1988;DHT22;12775;46.994;15.498;2023-04-01T00:47:29;11.50;97.50
1988;DHT22;12775;46.994;15.498;2023-04-01T00:49:56;11.50;97.70
1988;DHT22;12775;46.994;15.498;2023-04-01T00:52:23;11.50;97.70
1988;DHT22;12775;46.994;15.498;2023-04-01T00:54:53;11.50;97.70
1988;DHT22;12775;46.994;15.498;2023-04-01T00:57:27;11.50;97.80
1988;DHT22;12775;46.994;15.498;2023-04-01T00:59:53;11.50;97.70
1988;DHT22;12775;46.994;15.498;2023-04-01T01:02:19;11.50;97.70
1988;DHT22;12775;46.994;15.498;2023-04-01T01:04:46;11.60;98.40
1988;DHT22;12775;46.994;15.498;2023-04-01T01:07:42;11.50;98.50
1988;DHT22;12775;46.994;15.498;2023-04-01T01:10:17;11.50;98.10
1988;DHT22;12775;46.994;15.498;2023-04-01T01:12:45;11.50;98.80
1988;DHT22;12775;46.994;15.498;2023-04-01T01:15:33;11.50;99.00
1988;DHT22;12775;46.994;15.498;2023-04-01T01:18:05;11.40;98.90
1988;DHT22;12775;46.994;15.498;2023-04-01T01:23:22;11.40;98.20
1988;DHT22;12775;46.994;15.498;2023-04-01T01:25:57;11.30;97.70
1988;DHT22;12775;46.994;15.498;2023-04-01T01:34:20;11.20;97.50
1988;DHT22;12775;46.994;15.498;2023-04-01T01:36:45;11.20;98.40
1988;DHT22;12775;46.994;15.498;2023-04-01T01:39:12;11.20;98.50
1988;DHT22;12775;46.994;15.498;2023-04-01T01:41:41;11.10;97.90
1988;DHT22;12775;46.994;15.498;2023-04-01T01:44:08;11.10;97.90
1988;DHT22;12775;46.994;15.498;2023-04-01T01:46:36;11.10;98.20
1988;DHT22;12775;46.994;15.498;2023-04-01T01:49:03;11.00;98.70
1988;DHT22;12775;46.994;15.498;2023-04-01T01:51:30;10.90;99.00
1988;DHT22;12775;46.994;15.498;2023-04-01T01:53:59;10.90;99.20
1988;DHT22;12775;46.994;15.498;2023-04-01T01:56:26;10.80;99.00
1988;DHT22;12775;46.994;15.498;2023-04-01T01:58:56;10.80;99.80
1988;DHT22;12775;46.994;15.498;2023-04-01T02:01:24;10.80;99.60
1988;DHT22;12775;46.994;15.498;2023-04-01T02:03:51;10.70;99.90
1988;DHT22;12775;46.994;15.498;2023-04-01T02:06:19;10.70;99.80
1988;DHT22;12775;46.994;15.498;2023-04-01T02:08:47;10.60;99.80
1988;DHT22;12775;46.994;15.498;2023-04-01T02:11:14;10.60;98.90
1988;DHT22;12775;46.994;15.498;2023-04-01T02:13:45;10.70;98.80
1988;DHT22;12775;46.994;15.498;2023-04-01T02:16:13;10.60;98.80
1988;DHT22;12775;46.994;15.498;2023-04-01T02:18:39;10.70;97.40
1988;DHT22;12775;46.994;15.498;2023-04-01T02:21:07;10.70;97.80
1988;DHT22;12775;46.994;15.498;2023-04-01T02:23:35;10.70;98.20
1988;DHT22;12775;46.994;15.498;2023-04-01T02:26:04;10.70;97.90
1988;DHT22;12775;46.994;15.498;2023-04-01T02:28:30;10.70;97.90
1988;DHT22;12775;46.994;15.498;2023-04-01T02:30:57;10.60;97.20
1988;DHT22;12775;46.994;15.498;2023-04-01T02:33:25;10.60;98.00
1988;DHT22;12775;46.994;15.498;2023-04-01T02:35:52;10.60;97.90
1988;DHT22;12775;46.994;15.498;2023-04-01T02:38:19;10.50;98.40
1988;DHT22;12775;46.994;15.498;2023-04-01T02:40:48;10.50;99.40
1988;DHT22;12775;46.994;15.498;2023-04-01T02:43:14;10.40;99.30
1988;DHT22;12775;46.994;15.498;2023-04-01T02:45:42;10.30;99.20
1988;DHT22;12775;46.994;15.498;2023-04-01T02:48:09;10.10;99.50
1988;DHT22;12775;46.994;15.498;2023-04-01T02:50:35;10.10;99.50
1988;DHT22;12775;46.994;15.498;2023-04-01T02:53:03;9.90;99.90
1988;DHT22;12775;46.994;15.498;2023-04-01T02:55:29;9.90;99.90
1988;DHT22;12775;46.994;15.498;2023-04-01T02:57:57;9.70;99.90
1988;DHT22;12775;46.994;15.498;2023-04-01T03:00:25;9.60;99.90
1988;DHT22;12775;46.994;15.498;2023-04-01T03:02:53;9.60;99.90
1988;DHT22;12775;46.994;15.498;2023-04-01T03:05:20;9.60;99.90
1988;DHT22;12775;46.994;15.498;2023-04-01T03:07:47;9.70;99.90
1988;DHT22;12775;46.994;15.498;2023-04-01T03:10:14;9.70;99.90
1988;DHT22;12775;46.994;15.498;2023-04-01T03:12:43;9.70;99.90
1988;DHT22;12775;46.994;15.498;2023-04-01T03:15:11;9.70;99.90
1988;DHT22;12775;46.994;15.498;2023-04-01T03:17:37;9.70;99.90
1988;DHT22;12775;46.994;15.498;2023-04-01T03:20:04;9.80;99.90
1988;DHT22;12775;46.994;15.498;2023-04-01T03:22:31;9.70;99.90
1988;DHT22;12775;46.994;15.498;2023-04-01T03:24:59;9.60;99.90
1988;DHT22;12775;46.994;15.498;2023-04-01T03:27:27;9.60;99.90
1988;DHT22;12775;46.994;15.498;2023-04-01T03:29:54;9.70;99.90
1988;DHT22;12775;46.994;15.498;2023-04-01T03:32:22;9.70;99.90
1988;DHT22;12775;46.994;15.498;2023-04-01T03:34:49;9.60;99.90
1988;DHT22;12775;46.994;15.498;2023-04-01T03:37:16;9.60;99.90
1988;DHT22;12775;46.994;15.498;2023-04-01T03:39:45;9.60;99.90
1988;DHT22;12775;46.994;15.498;2023-04-01T03:42:12;9.60;99.90
1988;DHT22;12775;46.994;15.498;2023-04-01T03:44:39;9.60;99.90
1988;DHT22;12775;46.994;15.498;2023-04-01T03:47:07;9.60;99.90
1988;DHT22;12775;46.994;15.498;2023-04-01T03:49:34;9.50;99.90
1988;DHT22;12775;46.994;15.498;2023-04-01T03:52:02;9.50;99.90
1988;DHT22;12775;46.994;15.498;2023-04-01T03:54:29;9.50;99.90
1988;DHT22;12775;46.994;15.498;2023-04-01T03:56:57;9.50;99.90
1988;DHT22;12775;46.994;15.498;2023-04-01T03:59:25;9.50;99.90
1988;DHT22;12775;46.994;15.498;2023-04-01T04:01:52;9.60;99.90
1988;DHT22;12775;46.994;15.498;2023-04-01T04:04:20;9.60;99.90
1988;DHT22;12775;46.994;15.498;2023-04-01T04:06:47;9.60;99.90
1988;DHT22;12775;46.994;15.498;2023-04-01T04:09:14;9.60;99.90
1988;DHT22;12775;46.994;15.498;2023-04-01T04:11:42;9.60;99.90
1988;DHT22;12775;46.994;15.498;2023-04-01T04:14:10;9.70;99.90
1988;DHT22;12775;46.994;15.498;2023-04-01T04:16:37;9.70;99.90
1988;DHT22;12775;46.994;15.498;2023-04-01T04:19:05;9.70;99.90
1988;DHT22;12775;46.994;15.498;2023-04-01T04:21:32;9.80;99.90
1988;DHT22;12775;46.994;15.498;2023-04-01T04:24:00;9.80;99.90
1988;DHT22;12775;46.994;15.498;2023-04-01T04:26:27;9.80;99.90
1988;DHT22;12775;46.994;15.498;2023-04-01T04:28:55;9.80;99.90
1988;DHT22;12775;46.994;15.498;2023-04-01T04:31:24;9.80;99.90
1988;DHT22;12775;46.994;15.498;2023-04-01T04:33:50;9.80;99.90
1988;DHT22;12775;46.994;15.498;2023-04-01T04:36:17;9.80;99.90
1988;DHT22;12775;46.994;15.498;2023-04-01T04:38:44;9.90;99.90
1988;DHT22;12775;46.994;15.498;2023-04-01T04:41:14;9.80;99.90
1988;DHT22;12775;46.994;15.498;2023-04-01T04:43:41;9.90;99.90
1988;DHT22;12775;46.994;15.498;2023-04-01T04:46:09;9.90;99.90
1988;DHT22;12775;46.994;15.498;2023-04-01T04:48:36;9.90;99.90
1988;DHT22;12775;46.994;15.498;2023-04-01T04:51:03;9.90;99.90
1988;DHT22;12775;46.994;15.498;2023-04-01T04:53:30;9.90;99.90
1988;DHT22;12775;46.994;15.498;2023-04-01T04:55:57;9.80;99.90
1988;DHT22;12775;46.994;15.498;2023-04-01T04:58:23;9.80;99.90
1988;DHT22;12775;46.994;15.498;2023-04-01T05:00:50;9.80;99.90
1988;DHT22;12775;46.994;15.498;2023-04-01T05:03:17;9.80;99.90
1988;DHT22;12775;46.994;15.498;2023-04-01T05:05:48;9.80;99.90
1988;DHT22;12775;46.994;15.498;2023-04-01T05:08:15;9.80;99.90
1988;DHT22;12775;46.994;15.498;2023-04-01T05:10:42;9.80;99.90
1988;DHT22;12775;46.994;15.498;2023-04-01T05:13:10;9.80;99.90
1988;DHT22;12775;46.994;15.498;2023-04-01T05:15:37;9.80;99.90
1988;DHT22;12775;46.994;15.498;2023-04-01T05:18:04;9.80;99.90
1988;DHT22;12775;46.994;15.498;2023-04-01T05:20:32;9.80;99.90
1988;DHT22;12775;46.994;15.498;2023-04-01T05:22:59;9.80;99.90
1988;DHT22;12775;46.994;15.498;2023-04-01T05:25:26;9.80;99.90
1988;DHT22;12775;46.994;15.498;2023-04-01T05:27:55;9.90;99.90
1988;DHT22;12775;46.994;15.498;2023-04-01T05:30:23;9.90;99.90
1988;DHT22;12775;46.994;15.498;2023-04-01T05:32:50;10.00;99.90
1988;DHT22;12775;46.994;15.498;2023-04-01T05:35:17;9.90;99.90
1988;DHT22;12775;46.994;15.498;2023-04-01T05:37:44;10.10;99.90
1988;DHT22;12775;46.994;15.498;2023-04-01T05:40:12;10.10;99.90
1988;DHT22;12775;46.994;15.498;2023-04-01T05:42:39;10.20;99.90
1988;DHT22;12775;46.994;15.498;2023-04-01T05:45:07;10.20;99.90
1988;DHT22;12775;46.994;15.498;2023-04-01T05:47:37;10.20;99.90
1988;DHT22;12775;46.994;15.498;2023-04-01T05:50:05;10.30;99.90
1988;DHT22;12775;46.994;15.498;2023-04-01T05:52:32;10.20;99.90
1988;DHT22;12775;46.994;15.498;2023-04-01T05:54:58;10.30;99.90
1988;DHT22;12775;46.994;15.498;2023-04-01T05:57:25;10.30;99.90
1988;DHT22;12775;46.994;15.498;2023-04-01T05:59:53;10.30;99.90
1988;DHT22;12775;46.994;15.498;2023-04-01T06:02:20;10.40;99.90
1988;DHT22;12775;46.994;15.498;2023-04-01T06:04:47;10.50;99.90
1988;DHT22;12775;46.994;15.498;2023-04-01T06:07:17;10.50;99.90
1988;DHT22;12775;46.994;15.498;2023-04-01T06:09:43;10.60;99.90
1988;DHT22;12775;46.994;15.498;2023-04-01T06:12:23;10.60;99.90
1988;DHT22;12775;46.994;15.498;2023-04-01T06:14:58;10.70;99.90
1988;DHT22;12775;46.994;15.498;2023-04-01T06:17:32;10.70;99.90
1988;DHT22;12775;46.994;15.498;2023-04-01T06:20:07;10.80;99.90
1988;DHT22;12775;46.994;15.498;2023-04-01T06:22:54;10.90;99.90
1988;DHT22;12775;46.994;15.498;2023-04-01T06:25:41;10.90;99.90
1988;DHT22;12775;46.994;15.498;2023-04-01T06:31:03;10.90;99.90
1988;DHT22;12775;46.994;15.498;2023-04-01T06:34:15;10.80;99.90
1988;DHT22;12775;46.994;15.498;2023-04-01T06:36:31;10.90;99.90
1988;DHT22;12775;46.994;15.498;2023-04-01T06:39:23;10.90;99.90
1988;DHT22;12775;46.994;15.498;2023-04-01T06:41:57;11.00;99.90
1988;DHT22;12775;46.994;15.498;2023-04-01T06:44:46;11.10;99.90
1988;DHT22;12775;46.994;15.498;2023-04-01T06:47:18;11.00;99.90
1988;DHT22;12775;46.994;15.498;2023-04-01T06:52:22;11.30;99.90
1988;DHT22;12775;46.994;15.498;2023-04-01T06:54:48;11.30;99.90
1988;DHT22;12775;46.994;15.498;2023-04-01T06:57:21;11.60;99.90
1988;DHT22;12775;46.994;15.498;2023-04-01T06:59:47;11.50;99.90
1988;DHT22;12775;46.994;15.498;2023-04-01T07:02:19;11.70;99.90
1988;DHT22;12775;46.994;15.498;2023-04-01T07:04:44;11.80;99.90
1988;DHT22;12775;46.994;15.498;2023-04-01T07:07:21;12.00;99.90
1988;DHT22;12775;46.994;15.498;2023-04-01T07:09:48;12.10;99.90
1988;DHT22;12775;46.994;15.498;2023-04-01T07:12:18;12.20;99.90
1988;DHT22;12775;46.994;15.498;2023-04-01T07:14:42;12.10;99.90
1988;DHT22;12775;46.994;15.498;2023-04-01T07:17:16;12.20;99.90
1988;DHT22;12775;46.994;15.498;2023-04-01T07:19:44;12.40;99.90
1988;DHT22;12775;46.994;15.498;2023-04-01T07:22:48;12.30;99.90
1988;DHT22;12775;46.994;15.498;2023-04-01T07:25:01;12.60;99.90
1988;DHT22;12775;46.994;15.498;2023-04-01T07:27:25;12.70;99.90
1988;DHT22;12775;46.994;15.498;2023-04-01T07:29:55;12.90;99.90
1988;DHT22;12775;46.994;15.498;2023-04-01T07:32:39;13.10;99.90
1988;DHT22;12775;46.994;15.498;2023-04-01T07:35:07;13.00;99.90
1988;DHT22;12775;46.994;15.498;2023-04-01T07:37:39;13.30;99.90
1988;DHT22;12775;46.994;15.498;2023-04-01T07:40:26;13.40;99.90
1988;DHT22;12775;46.994;15.498;2023-04-01T07:43:08;13.50;99.90
1988;DHT22;12775;46.994;15.498;2023-04-01T07:45:36;13.60;99.30
1988;DHT22;12775;46.994;15.498;2023-04-01T07:48:11;13.60;99.90
1988;DHT22;12775;46.994;15.498;2023-04-01T07:50:38;14.00;99.90
1988;DHT22;12775;46.994;15.498;2023-04-01T07:53:26;14.20;99.90
1988;DHT22;12775;46.994;15.498;2023-04-01T07:55:58;14.30;98.20
1988;DHT22;12775;46.994;15.498;2023-04-01T07:58:32;14.50;99.80
1988;DHT22;12775;46.994;15.498;2023-04-01T08:00:59;14.70;97.60
1988;DHT22;12775;46.994;15.498;2023-04-01T08:03:31;14.60;98.10
1988;DHT22;12775;46.994;15.498;2023-04-01T08:05:58;14.60;96.80
1988;DHT22;12775;46.994;15.498;2023-04-01T08:08:43;14.60;96.00
1988;DHT22;12775;46.994;15.498;2023-04-01T08:11:13;14.90;99.90
1988;DHT22;12775;46.994;15.498;2023-04-01T08:13:45;15.20;96.90
1988;DHT22;12775;46.994;15.498;2023-04-01T08:16:51;15.20;95.30
1988;DHT22;12775;46.994;15.498;2023-04-01T08:19:01;15.30;95.10
1988;DHT22;12775;46.994;15.498;2023-04-01T08:21:32;15.30;94.40
1988;DHT22;12775;46.994;15.498;2023-04-01T08:23:57;15.50;93.40
1988;DHT22;12775;46.994;15.498;2023-04-01T08:26:30;15.50;93.40
1988;DHT22;12775;46.994;15.498;2023-04-01T08:28:55;15.60;92.00
1988;DHT22;12775;46.994;15.498;2023-04-01T08:31:32;15.80;90.80
1988;DHT22;12775;46.994;15.498;2023-04-01T08:33:57;15.90;89.70
1988;DHT22;12775;46.994;15.498;2023-04-01T08:36:29;16.00;90.60
1988;DHT22;12775;46.994;15.498;2023-04-01T08:39:05;16.10;92.90
1988;DHT22;12775;46.994;15.498;2023-04-01T08:41:44;16.20;92.50
1988;DHT22;12775;46.994;15.498;2023-04-01T08:44:20;16.30;92.20
1988;DHT22;12775;46.994;15.498;2023-04-01T08:47:08;16.40;92.10
1988;DHT22;12775;46.994;15.498;2023-04-01T08:49:42;16.50;90.90
1988;DHT22;12775;46.994;15.498;2023-04-01T08:52:24;16.20;89.40
1988;DHT22;12775;46.994;15.498;2023-04-01T08:55:27;16.00;86.70
1988;DHT22;12775;46.994;15.498;2023-04-01T09:00:46;15.90;91.00
1988;DHT22;12775;46.994;15.498;2023-04-01T09:03:51;16.20;88.50
1988;DHT22;12775;46.994;15.498;2023-04-01T09:06:10;16.20;89.60
1988;DHT22;12775;46.994;15.498;2023-04-01T09:08:35;16.10;89.70
1988;DHT22;12775;46.994;15.498;2023-04-01T09:11:04;16.30;87.90
1988;DHT22;12775;46.994;15.498;2023-04-01T09:13:37;16.30;87.80
1988;DHT22;12775;46.994;15.498;2023-04-01T09:16:24;16.60;86.90
1988;DHT22;12775;46.994;15.498;2023-04-01T09:19:06;16.70;86.30
1988;DHT22;12775;46.994;15.498;2023-04-01T09:24:26;16.70;89.20
1988;DHT22;12775;46.994;15.498;2023-04-01T09:27:30;17.10;87.30
1988;DHT22;12775;46.994;15.498;2023-04-01T09:30:32;17.30;87.80
1988;DHT22;12775;46.994;15.498;2023-04-01T09:35:47;17.80;86.10
1988;DHT22;12775;46.994;15.498;2023-04-01T09:38:28;18.00;90.10
1988;DHT22;12775;46.994;15.498;2023-04-01T09:43:39;18.40;90.30
1988;DHT22;12775;46.994;15.498;2023-04-01T09:46:23;18.60;89.60
1988;DHT22;12775;46.994;15.498;2023-04-01T09:51:36;19.00;79.60
1988;DHT22;12775;46.994;15.498;2023-04-01T09:54:04;19.10;80.00
1988;DHT22;12775;46.994;15.498;2023-04-01T09:59:42;19.10;76.50
1988;DHT22;12775;46.994;15.498;2023-04-01T10:05:13;19.20;82.20
1988;DHT22;12775;46.994;15.498;2023-04-01T10:07:57;19.30;80.20
1988;DHT22;12775;46.994;15.498;2023-04-01T10:10:30;19.30;77.30
1988;DHT22;12775;46.994;15.498;2023-04-01T10:16:09;19.40;73.60
1988;DHT22;12775;46.994;15.498;2023-04-01T10:24:13;19.50;78.50
1988;DHT22;12775;46.994;15.498;2023-04-01T10:30:37;19.40;79.00
1988;DHT22;12775;46.994;15.498;2023-04-01T10:32:27;19.20;79.00
1988;DHT22;12775;46.994;15.498;2023-04-01T10:35:07;19.30;75.20
1988;DHT22;12775;46.994;15.498;2023-04-01T10:45:38;18.90;76.00
1988;DHT22;12775;46.994;15.498;2023-04-01T10:48:30;18.90;72.50
1988;DHT22;12775;46.994;15.498;2023-04-01T10:51:20;18.90;72.50
1988;DHT22;12775;46.994;15.498;2023-04-01T10:53:49;19.10;71.40
1988;DHT22;12775;46.994;15.498;2023-04-01T10:56:28;19.10;74.60
1988;DHT22;12775;46.994;15.498;2023-04-01T10:58:56;19.30;75.30
1988;DHT22;12775;46.994;15.498;2023-04-01T11:02:14;19.30;73.20
1988;DHT22;12775;46.994;15.498;2023-04-01T11:07:15;19.40;70.20
1988;DHT22;12775;46.994;15.498;2023-04-01T11:12:33;19.10;72.60
1988;DHT22;12775;46.994;15.498;2023-04-01T11:15:22;19.10;70.70
1988;DHT22;12775;46.994;15.498;2023-04-01T11:18:01;18.90;73.80
1988;DHT22;12775;46.994;15.498;2023-04-01T11:20:35;18.90;75.10
1988;DHT22;12775;46.994;15.498;2023-04-01T11:23:07;19.00;75.80
1988;DHT22;12775;46.994;15.498;2023-04-01T11:25:48;18.90;75.00
1988;DHT22;12775;46.994;15.498;2023-04-01T11:28:25;18.70;74.80
1988;DHT22;12775;46.994;15.498;2023-04-01T11:31:34;18.70;75.50
1988;DHT22;12775;46.994;15.498;2023-04-01T11:36:42;18.60;76.10
1988;DHT22;12775;46.994;15.498;2023-04-01T11:39:41;18.70;75.00
1988;DHT22;12775;46.994;15.498;2023-04-01T11:42:19;18.70;75.20
1988;DHT22;12775;46.994;15.498;2023-04-01T11:44:51;18.60;75.20
1988;DHT22;12775;46.994;15.498;2023-04-01T11:50:10;19.00;69.80
1988;DHT22;12775;46.994;15.498;2023-04-01T11:58:23;19.40;65.90
1988;DHT22;12775;46.994;15.498;2023-04-01T12:00:42;19.50;68.60
1988;DHT22;12775;46.994;15.498;2023-04-01T12:06:14;19.50;70.80
1988;DHT22;12775;46.994;15.498;2023-04-01T12:08:46;19.30;65.50
1988;DHT22;12775;46.994;15.498;2023-04-01T12:13:53;19.50;68.00
1988;DHT22;12775;46.994;15.498;2023-04-01T12:16:24;19.60;63.10
1988;DHT22;12775;46.994;15.498;2023-04-01T12:18:50;19.70;65.40
1988;DHT22;12775;46.994;15.498;2023-04-01T12:21:22;19.80;70.10
1988;DHT22;12775;46.994;15.498;2023-04-01T12:26:44;19.80;71.00
1988;DHT22;12775;46.994;15.498;2023-04-01T12:30:25;20.00;69.60
1988;DHT22;12775;46.994;15.498;2023-04-01T12:32:03;20.10;69.30
1988;DHT22;12775;46.994;15.498;2023-04-01T12:34:35;20.10;62.20
1988;DHT22;12775;46.994;15.498;2023-04-01T12:43:05;20.20;62.10
1988;DHT22;12775;46.994;15.498;2023-04-01T12:45:30;20.20;64.90
1988;DHT22;12775;46.994;15.498;2023-04-01T12:48:01;20.10;63.40
1988;DHT22;12775;46.994;15.498;2023-04-01T12:50:51;19.80;62.10
1988;DHT22;12775;46.994;15.498;2023-04-01T12:53:43;19.80;62.20
1988;DHT22;12775;46.994;15.498;2023-04-01T12:56:40;19.60;68.00
1988;DHT22;12775;46.994;15.498;2023-04-01T13:00:13;19.50;64.20
1988;DHT22;12775;46.994;15.498;2023-04-01T13:01:59;19.60;65.40
1988;DHT22;12775;46.994;15.498;2023-04-01T13:04:33;19.50;65.20
1988;DHT22;12775;46.994;15.498;2023-04-01T13:09:48;19.40;65.10
1988;DHT22;12775;46.994;15.498;2023-04-01T13:12:35;19.20;64.90
1988;DHT22;12775;46.994;15.498;2023-04-01T13:18:06;18.60;69.20
1988;DHT22;12775;46.994;15.498;2023-04-01T13:20:54;18.60;68.00
1988;DHT22;12775;46.994;15.498;2023-04-01T13:23:27;18.70;67.50
1988;DHT22;12775;46.994;15.498;2023-04-01T13:26:17;18.80;66.40
1988;DHT22;12775;46.994;15.498;2023-04-01T13:29:13;18.70;66.00
1988;DHT22;12775;46.994;15.498;2023-04-01T13:31:54;18.70;67.10
1988;DHT22;12775;46.994;15.498;2023-04-01T13:37:04;18.80;68.40
1988;DHT22;12775;46.994;15.498;2023-04-01T13:42:21;18.90;67.70
1988;DHT22;12775;46.994;15.498;2023-04-01T13:44:50;19.10;69.80
1988;DHT22;12775;46.994;15.498;2023-04-01T13:50:13;19.30;68.70
1988;DHT22;12775;46.994;15.498;2023-04-01T13:55:53;19.40;66.10
1988;DHT22;12775;46.994;15.498;2023-04-01T13:58:30;19.60;66.10
1988;DHT22;12775;46.994;15.498;2023-04-01T14:02:13;19.60;67.20
1988;DHT22;12775;46.994;15.498;2023-04-01T14:04:01;19.70;61.70
1988;DHT22;12775;46.994;15.498;2023-04-01T14:06:28;19.80;65.70
1988;DHT22;12775;46.994;15.498;2023-04-01T14:09:15;19.90;63.10
1988;DHT22;12775;46.994;15.498;2023-04-01T14:17:08;19.90;59.00
1988;DHT22;12775;46.994;15.498;2023-04-01T14:22:26;20.00;63.60
1988;DHT22;12775;46.994;15.498;2023-04-01T14:25:41;20.00;63.70
1988;DHT22;12775;46.994;15.498;2023-04-01T14:27:51;20.00;63.10
1988;DHT22;12775;46.994;15.498;2023-04-01T14:30:31;20.00;58.80
1988;DHT22;12775;46.994;15.498;2023-04-01T14:33:01;20.20;61.90
1988;DHT22;12775;46.994;15.498;2023-04-01T14:35:33;20.30;57.90
1988;DHT22;12775;46.994;15.498;2023-04-01T14:38:02;20.40;58.00
1988;DHT22;12775;46.994;15.498;2023-04-01T14:40:49;20.50;59.10
1988;DHT22;12775;46.994;15.498;2023-04-01T14:43:47;20.50;57.10
1988;DHT22;12775;46.994;15.498;2023-04-01T14:46:24;20.50;57.00
1988;DHT22;12775;46.994;15.498;2023-04-01T14:48:51;20.60;58.60
1988;DHT22;12775;46.994;15.498;2023-04-01T14:54:00;20.60;50.40
1988;DHT22;12775;46.994;15.498;2023-04-01T14:56:40;20.50;56.30
1988;DHT22;12775;46.994;15.498;2023-04-01T14:59:09;20.60;54.20
1988;DHT22;12775;46.994;15.498;2023-04-01T15:01:45;20.50;56.30
1988;DHT22;12775;46.994;15.498;2023-04-01T15:07:06;20.40;50.80
1988;DHT22;12775;46.994;15.498;2023-04-01T15:09:44;20.70;57.30
1988;DHT22;12775;46.994;15.498;2023-04-01T15:12:49;20.80;57.20
1988;DHT22;12775;46.994;15.498;2023-04-01T15:17:43;21.10;58.00
1988;DHT22;12775;46.994;15.498;2023-04-01T15:22:57;21.30;52.00
1988;DHT22;12775;46.994;15.498;2023-04-01T15:26:03;21.30;53.10
1988;DHT22;12775;46.994;15.498;2023-04-01T15:28:28;21.20;60.30
1988;DHT22;12775;46.994;15.498;2023-04-01T15:30:56;21.20;57.60
1988;DHT22;12775;46.994;15.498;2023-04-01T15:36:13;21.30;53.80
1988;DHT22;12775;46.994;15.498;2023-04-01T15:38:58;21.30;49.60
1988;DHT22;12775;46.994;15.498;2023-04-01T15:41:49;21.00;49.20
1988;DHT22;12775;46.994;15.498;2023-04-01T15:44:35;21.00;49.80
1988;DHT22;12775;46.994;15.498;2023-04-01T15:46:56;21.00;50.00
1988;DHT22;12775;46.994;15.498;2023-04-01T15:49:37;21.10;50.70
1988;DHT22;12775;46.994;15.498;2023-04-01T15:52:17;21.10;55.30
1988;DHT22;12775;46.994;15.498;2023-04-01T15:54:55;21.20;50.20
1988;DHT22;12775;46.994;15.498;2023-04-01T15:58:29;21.10;49.40
1988;DHT22;12775;46.994;15.498;2023-04-01T16:00:41;21.00;48.90
1988;DHT22;12775;46.994;15.498;2023-04-01T16:06:27;20.90;50.10
1988;DHT22;12775;46.994;15.498;2023-04-01T16:09:28;20.80;47.60
1988;DHT22;12775;46.994;15.498;2023-04-01T16:11:46;20.80;47.60
1988;DHT22;12775;46.994;15.498;2023-04-01T16:14:54;20.50;47.70
1988;DHT22;12775;46.994;15.498;2023-04-01T16:17:12;20.40;48.20
1988;DHT22;12775;46.994;15.498;2023-04-01T16:19:41;20.30;47.80
1988;DHT22;12775;46.994;15.498;2023-04-01T16:22:13;20.10;48.60
1988;DHT22;12775;46.994;15.498;2023-04-01T16:27:39;19.50;48.60
1988;DHT22;12775;46.994;15.498;2023-04-01T16:30:22;19.50;48.70
1988;DHT22;12775;46.994;15.498;2023-04-01T16:32:41;19.50;48.70
1988;DHT22;12775;46.994;15.498;2023-04-01T16:35:23;19.40;49.00
1988;DHT22;12775;46.994;15.498;2023-04-01T16:37:50;19.30;48.70
1988;DHT22;12775;46.994;15.498;2023-04-01T16:40:24;19.30;49.80
1988;DHT22;12775;46.994;15.498;2023-04-01T16:45:42;19.00;49.20
1988;DHT22;12775;46.994;15.498;2023-04-01T16:48:11;19.00;49.90
1988;DHT22;12775;46.994;15.498;2023-04-01T16:50:41;18.90;50.70
1988;DHT22;12775;46.994;15.498;2023-04-01T16:53:10;18.90;51.30
1988;DHT22;12775;46.994;15.498;2023-04-01T16:56:16;18.80;50.90
1988;DHT22;12775;46.994;15.498;2023-04-01T16:58:27;18.70;52.00
1988;DHT22;12775;46.994;15.498;2023-04-01T17:01:01;18.50;51.50
1988;DHT22;12775;46.994;15.498;2023-04-01T17:03:43;18.50;51.50
1988;DHT22;12775;46.994;15.498;2023-04-01T17:06:35;18.30;52.60
1988;DHT22;12775;46.994;15.498;2023-04-01T17:09:28;18.10;52.10
1988;DHT22;12775;46.994;15.498;2023-04-01T17:12:00;18.10;52.10
1988;DHT22;12775;46.994;15.498;2023-04-01T17:18:25;17.60;53.80
1988;DHT22;12775;46.994;15.498;2023-04-01T17:23:12;17.30;55.30
1988;DHT22;12775;46.994;15.498;2023-04-01T17:25:47;17.10;55.40
1988;DHT22;12775;46.994;15.498;2023-04-01T17:28:24;16.90;56.60
1988;DHT22;12775;46.994;15.498;2023-04-01T17:31:04;16.90;56.60
1988;DHT22;12775;46.994;15.498;2023-04-01T17:36:11;16.40;54.30
1988;DHT22;12775;46.994;15.498;2023-04-01T17:47:07;16.10;57.70
1988;DHT22;12775;46.994;15.498;2023-04-01T17:49:36;16.10;62.60
1988;DHT22;12775;46.994;15.498;2023-04-01T17:52:17;16.00;62.60
1988;DHT22;12775;46.994;15.498;2023-04-01T17:54:55;15.70;63.30
1988;DHT22;12775;46.994;15.498;2023-04-01T17:57:27;15.50;63.50
1988;DHT22;12775;46.994;15.498;2023-04-01T18:00:02;15.40;64.00
1988;DHT22;12775;46.994;15.498;2023-04-01T18:02:52;15.30;66.70
1988;DHT22;12775;46.994;15.498;2023-04-01T18:05:37;15.30;66.70
1988;DHT22;12775;46.994;15.498;2023-04-01T18:14:07;15.10;66.90
1988;DHT22;12775;46.994;15.498;2023-04-01T18:16:41;15.10;69.30
1988;DHT22;12775;46.994;15.498;2023-04-01T18:19:23;15.10;69.20
1988;DHT22;12775;46.994;15.498;2023-04-01T18:21:52;15.00;71.20
1988;DHT22;12775;46.994;15.498;2023-04-01T18:27:22;14.80;69.00
1988;DHT22;12775;46.994;15.498;2023-04-01T18:29:49;14.70;70.80
1988;DHT22;12775;46.994;15.498;2023-04-01T18:32:48;14.60;70.60
1988;DHT22;12775;46.994;15.498;2023-04-01T18:37:37;14.50;70.60
1988;DHT22;12775;46.994;15.498;2023-04-01T18:40:36;14.60;70.00
1988;DHT22;12775;46.994;15.498;2023-04-01T18:43:39;14.60;70.00
1988;DHT22;12775;46.994;15.498;2023-04-01T18:45:56;14.50;71.90
1988;DHT22;12775;46.994;15.498;2023-04-01T18:51:10;14.30;70.40
1988;DHT22;12775;46.994;15.498;2023-04-01T18:53:35;14.20;69.70